createdAt,value
2018-01-23T17:21:41.757Z,7.10
2018-01-23T17:24:10.462Z,4.23
2018-01-23T17:26:38.913Z,7.83
2018-01-23T17:29:07.391Z,7.43
2018-01-23T17:31:36.588Z,11.43
2018-01-23T17:34:05.798Z,8.63
2018-01-23T17:36:35.003Z,7.60
2018-01-23T17:39:03.522Z,6.47
2018-01-23T17:41:31.955Z,7.97
2018-01-23T17:44:01.201Z,7.27
2018-01-23T17:46:29.672Z,6.23
2018-01-23T17:48:58.287Z,11.10
2018-01-23T17:51:26.701Z,8.07
2018-01-23T17:53:56.000Z,9.10
2018-01-23T17:56:25.357Z,4.17
2018-01-23T17:58:53.826Z,8.30
2018-01-23T18:01:22.467Z,11.23
2018-01-23T18:03:51.021Z,3.63
2018-01-23T18:06:19.523Z,6.63
2018-01-23T18:08:48.105Z,8.37
2018-01-23T18:11:17.409Z,6.90
2018-01-23T18:13:46.877Z,7.20
2018-01-23T18:16:15.408Z,6.73
2018-01-23T18:18:43.929Z,8.00
2018-01-23T18:21:12.532Z,4.23
2018-01-23T18:23:41.148Z,6.97
2018-01-23T18:26:10.452Z,5.97
2018-01-23T18:28:39.036Z,6.00
2018-01-23T18:31:08.294Z,8.33
2018-01-23T18:33:36.771Z,9.07
2018-01-23T18:36:05.341Z,7.17
2018-01-23T18:38:33.821Z,5.10
2018-01-23T18:41:02.685Z,6.30
2018-01-23T18:43:31.933Z,6.23
2018-01-23T18:46:00.434Z,8.13
2018-01-23T18:48:28.911Z,7.00
2018-01-23T18:50:57.363Z,8.20
2018-01-23T18:53:26.088Z,6.93
2018-01-23T18:55:55.400Z,9.70
2018-01-23T18:58:23.938Z,6.03
2018-01-23T19:00:52.733Z,8.17
2018-01-23T19:03:21.240Z,10.30
2018-01-23T19:05:49.800Z,7.13
2018-01-23T19:08:18.303Z,6.40
2018-01-23T19:10:46.909Z,6.00
2018-01-23T19:13:15.547Z,8.13
2018-01-23T19:15:44.052Z,5.47
2018-01-23T19:18:12.528Z,8.90
2018-01-23T19:20:41.745Z,8.07
2018-01-23T19:23:11.732Z,7.10
2018-01-23T19:25:40.196Z,6.67
2018-01-23T19:28:08.754Z,8.70
2018-01-23T19:30:38.309Z,7.33
2018-01-23T19:33:06.764Z,4.70
2018-01-23T19:35:35.466Z,6.33
2018-01-23T19:38:03.981Z,6.20
2018-01-23T19:40:32.628Z,8.67
2018-01-23T19:43:01.111Z,5.90
2018-01-23T19:45:29.559Z,8.97
2018-01-23T19:47:58.942Z,8.30
2018-01-23T19:50:27.582Z,10.17
2018-01-23T19:52:56.049Z,7.93
2018-01-23T19:55:25.265Z,6.80
2018-01-23T19:57:53.769Z,8.57
2018-01-23T20:00:22.228Z,6.53
2018-01-23T20:02:50.699Z,10.53
2018-01-23T20:05:19.510Z,6.43
2018-01-23T20:07:48.062Z,8.60
2018-01-23T20:10:17.302Z,11.30
2018-01-23T20:12:45.829Z,8.73
2018-01-23T20:15:14.544Z,7.70
2018-01-23T20:17:43.013Z,8.63
2018-01-23T20:20:12.254Z,7.07
2018-01-23T20:22:40.738Z,8.90
2018-01-23T20:25:09.231Z,10.40
2018-01-23T20:27:37.701Z,8.97
2018-01-23T20:30:06.198Z,10.70
2018-01-23T20:32:35.557Z,9.33
2018-01-23T20:35:04.011Z,10.13
2018-01-23T20:37:33.282Z,11.27
2018-01-23T20:40:01.738Z,10.13
2018-01-23T20:42:30.233Z,10.60
2018-01-23T20:44:59.824Z,11.20
2018-01-23T20:47:28.416Z,9.20
2018-01-23T20:49:57.051Z,10.27
2018-01-23T20:52:25.565Z,10.97
2018-01-23T20:54:54.169Z,8.53
2018-01-23T20:57:22.644Z,8.90
2018-01-23T20:59:51.413Z,9.20
2018-01-23T21:02:19.937Z,12.60
2018-01-23T21:04:48.387Z,12.50
2018-01-23T21:07:16.853Z,12.43
2018-01-23T21:09:45.338Z,8.37
2018-01-23T21:12:13.829Z,7.00
2018-01-23T21:14:43.191Z,7.57
2018-01-23T21:17:11.666Z,8.67
2018-01-23T21:19:40.456Z,7.13
2018-01-23T21:22:09.754Z,5.03
2018-01-23T21:24:38.999Z,8.57
2018-01-23T21:27:07.865Z,9.30
2018-01-23T21:29:37.180Z,9.80
2018-01-23T21:32:05.772Z,7.43
2018-01-23T21:34:34.459Z,7.47
2018-01-23T21:37:03.090Z,12.00
2018-01-23T21:39:31.681Z,11.50
2018-01-23T21:42:00.196Z,8.93
2018-01-23T21:44:28.768Z,11.77
2018-01-23T21:46:58.058Z,9.77
2018-01-23T21:49:27.554Z,11.50
2018-01-23T21:51:56.123Z,9.60
2018-01-23T21:54:24.631Z,7.33
2018-01-23T21:56:53.855Z,7.40
2018-01-23T21:59:22.316Z,4.77
2018-01-23T22:01:51.573Z,5.73
2018-01-23T22:04:20.202Z,3.77
2018-01-23T22:06:49.464Z,6.10
2018-01-23T22:09:17.998Z,4.87
2018-01-23T22:11:46.433Z,7.20
2018-01-23T22:14:14.972Z,6.30
2018-01-23T22:16:43.542Z,5.70
2018-01-23T22:19:11.989Z,4.77
2018-01-23T22:21:40.492Z,3.53
2018-01-23T22:24:09.780Z,5.20
2018-01-23T22:26:39.091Z,12.13
2018-01-23T22:29:08.330Z,6.40
2018-01-23T22:31:38.728Z,6.47
2018-01-23T22:34:08.035Z,7.50
2018-01-23T22:36:37.389Z,7.83
2018-01-23T22:39:06.736Z,8.03
2018-01-23T22:41:35.952Z,9.67
2018-01-23T22:44:05.185Z,7.27
2018-01-23T22:46:33.797Z,7.17
2018-01-23T22:49:02.302Z,4.80
2018-01-23T22:51:32.282Z,6.10
2018-01-23T22:54:00.818Z,5.57
2018-01-23T22:56:30.038Z,4.40
2018-01-23T22:58:58.606Z,5.23
2018-01-23T23:01:27.931Z,5.73
2018-01-23T23:03:56.625Z,5.83
2018-01-23T23:06:25.230Z,5.17
2018-01-23T23:08:53.950Z,4.43
2018-01-23T23:11:22.448Z,4.23
2018-01-23T23:13:51.709Z,2.93
2018-01-23T23:16:20.380Z,3.63
2018-01-23T23:18:49.027Z,2.77
2018-01-23T23:21:18.360Z,2.23
2018-01-23T23:23:46.850Z,1.70
2018-01-23T23:26:15.430Z,2.60
2018-01-23T23:28:43.965Z,2.03
2018-01-23T23:31:13.273Z,2.27
2018-01-23T23:33:41.807Z,1.97
2018-01-23T23:36:10.307Z,2.07
2018-01-23T23:38:38.700Z,1.80
2018-01-23T23:41:07.134Z,3.10
2018-01-23T23:43:35.545Z,2.83
2018-01-23T23:46:03.982Z,3.83
2018-01-23T23:48:33.164Z,2.53
2018-01-23T23:51:02.335Z,3.60
2018-01-23T23:53:30.956Z,3.80
2018-01-23T23:56:00.125Z,1.80
2018-01-23T23:58:28.654Z,2.93
